Latest Weather Observations for Batchelor

IDD60901

Issued at 4:51 pm CST Saturday 23 May 2015 (issued every 10 minutes, with the page automatically refreshed every 10 minutes)

About weather observations | Map of Darwin area stations | Latest observations for Darwin area | Other Formats
Station Details ID: 014272 Name: BATCHELOR AIRPORT Lat: -13.05 Lon: 131.03 Height: 104.0 m
Data from the previous 72 hours. | See also: Recent months at Batchelor
Date/Time
CST
Tmp

°C
App
Tmp
°C
Dew
Point
°C
Rel
Hum
%
Delta-T

°C
Wind Press
QNH
hPa
Press
MSL
hPa
Rain
since
9 am
mm
Dir
 
Spd
km/h
Gust
km/h
Spd
kts
Gust
kts
23/04:30pm 32.4 29.0 9.2 24 13.2 ESE 17 22 9 12 1012.4 1011.9 0.0
23/04:00pm 32.9 30.4 9.7 24 13.3 ESE 13 20 7 11 1012.2 1011.7 0.0
23/03:30pm 32.3 29.4 9.8 25 12.9 SE 15 24 8 13 1012.5 1012.0 0.0
23/03:00pm 32.8 29.3 10.2 25 13.0 ESE 19 37 10 20 1012.9 1012.3 0.0
23/02:30pm 32.3 29.8 9.8 25 12.9 E 13 24 7 13 1013.3 1012.7 0.0
23/02:00pm 32.6 29.2 10.6 26 12.8 ESE 19 30 10 16 1013.8 1013.2 0.0
23/01:30pm 32.3 28.9 10.4 26 12.6 ESE 19 32 10 17 1014.3 1013.7 0.0
23/01:00pm 31.7 28.6 10.4 27 12.3 SE 17 24 9 13 1014.9 1014.3 0.0
23/12:30pm 30.5 27.7 9.9 28 11.7 SE 15 22 8 12 1015.5 1014.9 0.0
23/12:00pm 30.6 27.2 10.5 29 11.5 ESE 19 26 10 14 1015.9 1015.3 0.0
23/11:30am 29.5 26.9 10.6 31 10.8 ESE 15 24 8 13 1016.3 1015.7 0.0
23/11:00am 28.3 25.4 10.9 34 9.9 ESE 17 24 9 13 1016.8 1016.2 0.0
23/10:30am 27.1 23.8 11.6 38 8.9 SE 20 32 11 17 1017.3 1016.7 0.0
23/10:00am 25.8 22.1 11.6 41 8.1 ESE 22 33 12 18 1017.5 1016.9 0.0
23/09:30am 25.2 21.8 12.4 45 7.4 SE 22 32 12 17 1017.5 1016.9 0.0
23/09:00am 24.2 20.8 12.5 48 6.7 SE 22 33 12 18 1017.2 1016.6 0.0
23/08:30am 23.3 21.2 12.3 50 6.3 SE 15 24 8 13 1017.3 1016.7 0.0
23/08:00am 22.1 20.3 12.1 53 5.7 SE 13 22 7 12 1017.2 1016.6 0.0
23/07:30am 20.8 19.9 12.5 59 4.7 SE 9 13 5 7 1017.1 1016.5 0.0
23/07:00am 20.0 19.4 12.3 61 4.3 SE 7 13 4 7 1016.7 1016.1 0.0
23/06:30am 20.6 19.6 12.3 59 4.7 SE 9 13 5 7 1016.4 1015.8 0.0
23/06:00am 21.7 20.3 12.3 55 5.3 SE 11 17 6 9 1016.0 1015.4 0.0
23/05:30am 22.2 20.9 12.5 54 5.5 SE 11 17 6 9 1015.9 1015.3 0.0
23/05:00am 21.9 20.7 12.7 56 5.3 SE 11 13 6 7 1015.8 1015.2 0.0
23/04:30am 22.1 21.3 12.9 56 5.3 SE 9 13 5 7 1015.6 1015.0 0.0
23/04:00am 22.2 21.5 13.3 57 5.1 ESE 9 13 5 7 1015.4 1014.8 0.0
23/03:30am 22.3 21.7 13.4 57 5.2 SE 9 15 5 8 1015.4 1014.8 0.0
23/03:00am 21.7 21.2 13.9 61 4.5 ESE 9 13 5 7 1015.4 1014.8 0.0
23/02:30am 21.1 21.0 14.0 64 4.1 ESE 7 11 4 6 1015.5 1014.9 0.0
23/02:00am 20.2 20.5 14.6 70 3.3 SE 6 7 3 4 1015.5 1014.9 0.0
23/01:30am 19.8 21.8 17.8 88 1.2 S 4 6 2 3 1015.4 1014.8 0.0
23/01:00am 19.9 22.7 18.0 89 1.2 CALM 0 0 0 0 1015.5 1014.9 0.0
23/12:30am 20.6 23.6 18.5 88 1.3 CALM 0 0 0 0 1015.6 1015.0 0.0
23/12:00am 21.8 25.4 19.7 88 1.3 CALM 0 4 0 2 1015.8 1015.2 0.0
 
Date/Time
CST
Tmp

°C
App
Tmp
°C
Dew
Point
°C
Rel
Hum
%
Delta-T

°C
Wind Press
QNH
hPa
Press
MSL
hPa
Rain
since
9 am
mm
Dir
 
Spd
km/h
Gust
km/h
Spd
kts
Gust
kts
22/11:30pm 22.3 25.9 19.8 86 1.6 CALM 0 0 0 0 1016.2 1015.6 0.0
22/11:00pm 23.4 27.1 20.0 81 2.2 CALM 0 0 0 0 1016.3 1015.7 0.0
22/10:30pm 24.0 27.4 20.1 79 2.5 N 2 4 1 2 1016.3 1015.7 0.0
22/10:00pm 24.7 27.9 20.6 78 2.7 NW 4 6 2 3 1016.3 1015.7 0.0
22/09:30pm 25.6 28.4 20.4 73 3.4 W 6 9 3 5 1016.1 1015.5 0.0
22/09:00pm 25.5 27.1 18.2 64 4.6 NW 7 13 4 7 1015.9 1015.3 0.0
22/08:30pm 23.7 25.4 16.2 63 4.6 E 2 4 1 2 1015.5 1014.9 0.0
22/08:00pm 24.2 26.3 16.2 61 4.9 CALM 0 0 0 0 1015.0 1014.4 0.0
22/07:30pm 24.6 26.6 16.1 59 5.2 CALM 0 0 0 0 1014.7 1014.1 0.0
22/07:00pm 26.0 27.8 15.4 52 6.5 CALM 0 0 0 0 1014.2 1013.6 0.0
22/06:30pm 28.6 29.9 15.2 44 8.2 E 2 4 1 2 1014.0 1013.4 0.0
22/06:00pm 31.0 31.2 14.2 36 10.2 E 6 11 3 6 1013.7 1013.1 0.0
22/05:30pm 32.5 31.7 14.1 32 11.2 E 11 19 6 10 1013.4 1012.8 0.0
22/05:00pm 31.2 31.3 14.4 36 10.3 ESE 7 13 4 7 1013.2 1012.6 0.0
22/04:30pm 33.6 33.2 14.1 30 12.0 E 9 15 5 8 1013.0 1012.4 0.0
22/04:00pm 32.8 31.8 13.4 30 11.8 E 11 20 6 11 1013.1 1012.5 0.0
22/03:30pm 33.0 31.7 13.6 31 11.8 ESE 13 24 7 13 1013.3 1012.7 0.0
22/03:00pm 33.0 32.0 14.6 33 11.4 ESE 13 20 7 11 1013.5 1012.9 0.0
22/02:30pm 33.3 31.4 15.3 34 11.2 E 19 28 10 15 1013.6 1013.0 0.0
22/02:00pm 33.2 31.9 15.7 35 11.0 ESE 17 28 9 15 1013.9 1013.3 0.0
22/01:30pm 30.8 29.2 16.0 40 9.2 ESE 19 24 10 13 1014.2 1013.6 0.0
22/01:00pm 31.0 30.2 17.0 43 8.9 ESE 17 24 9 13 1014.8 1014.2 0.0
22/12:30pm 30.2 30.0 17.6 46 8.0 ESE 15 24 8 13 1015.4 1014.8 0.0
22/12:00pm 31.2 32.1 19.2 48 7.9 ESE 13 20 7 11 1015.7 1015.1 0.0
22/11:30am 29.3 30.5 19.9 57 6.2 ESE 13 20 7 11 1016.1 1015.5 0.0
22/11:00am 29.5 30.7 19.8 56 6.4 ESE 13 20 7 11 1016.5 1015.9 0.0
22/10:30am 29.6 31.6 20.7 58 5.9 ENE 11 20 6 11 1016.6 1016.0 0.0
22/10:00am 28.3 30.7 20.8 63 5.0 ENE 9 15 5 8 1016.8 1016.2 0.0
22/09:30am 27.5 30.4 21.8 71 3.8 E 9 13 5 7 1016.8 1016.2 0.0
22/09:00am 26.5 29.6 22.1 77 3.0 ESE 9 11 5 6 1016.8 1016.2 0.0
22/08:30am 24.8 28.3 22.1 85 1.8 SE 7 9 4 5 1016.6 1016.0 0.0
22/08:00am 23.6 27.1 21.9 90 1.1 E 6 7 3 4 1016.2 1015.6 0.0
22/07:30am 21.3 24.9 20.5 95 0.5 N 2 4 1 2 1016.2 1015.6 0.0
22/07:00am 20.3 23.7 19.3 94 0.6 CALM 0 0 0 0 1015.9 1015.3 0.0
22/06:30am 20.6 24.0 19.4 93 0.8 CALM 0 0 0 0 1015.6 1015.0 0.0
22/06:00am 20.9 24.5 19.7 93 0.8 CALM 0 0 0 0 1015.6 1015.0 0.0
22/05:30am 20.8 24.2 19.3 91 1.0 CALM 0 0 0 0 1015.6 1015.0 0.0
22/05:00am 21.3 25.1 20.1 93 0.8 CALM 0 0 0 0 1015.6 1015.0 0.0
22/04:30am 20.8 24.0 18.9 89 1.2 CALM 0 0 0 0 1015.7 1015.1 0.0
22/04:00am 21.1 24.3 18.9 87 1.4 CALM 0 0 0 0 1015.7 1015.1 0.0
22/03:30am 21.8 25.2 20.1 90 1.1 N 2 2 1 1 1015.7 1015.1 0.0
22/03:00am 22.4 26.8 21.4 94 0.7 CALM 0 0 0 0 1015.7 1015.1 0.0
22/02:30am 21.4 24.9 19.5 89 1.2 CALM 0 0 0 0 1015.5 1014.9 0.0
22/02:00am 22.1 25.8 20.7 92 0.9 N 2 4 1 2 1015.3 1014.7 0.0
22/01:30am 22.2 25.6 20.1 88 1.4 N 2 4 1 2 1015.5 1014.9 0.0
22/01:00am 22.7 26.8 20.8 89 1.2 CALM 0 0 0 0 1015.7 1015.1 0.0
22/12:30am 23.2 27.1 21.1 88 1.4 N 2 4 1 2 1015.9 1015.3 0.0
22/12:00am 23.0 26.2 20.5 86 1.6 W 4 6 2 3 1015.9 1015.3 0.0
 
Date/Time
CST
Tmp

°C
App
Tmp
°C
Dew
Point
°C
Rel
Hum
%
Delta-T

°C
Wind Press
QNH
hPa
Press
MSL
hPa
Rain
since
9 am
mm
Dir
 
Spd
km/h
Gust
km/h
Spd
kts
Gust
kts
21/11:30pm 23.0 26.7 20.0 83 1.9 CALM 0 0 0 0 1015.9 1015.3 0.0
21/11:00pm 23.8 27.6 20.9 84 1.9 WSW 2 4 1 2 1015.7 1015.1 0.0
21/10:30pm 24.4 27.7 20.7 80 2.4 WSW 4 6 2 3 1015.6 1015.0 0.0
21/10:00pm 25.2 29.0 20.9 77 2.8 WSW 2 6 1 3 1015.6 1015.0 0.0
21/09:30pm 25.5 28.7 21.2 77 2.8 W 6 7 3 4 1015.4 1014.8 0.0
21/09:00pm 25.8 29.2 21.0 75 3.2 W 4 6 2 3 1015.2 1014.6 0.0
21/08:30pm 26.1 29.7 21.3 75 3.2 WSW 4 6 2 3 1015.0 1014.4 0.0
21/08:00pm 26.7 30.0 21.5 73 3.5 WSW 6 7 3 4 1014.5 1013.9 0.0
21/07:30pm 27.3 30.3 21.3 69 4.0 W 7 11 4 6 1014.2 1013.6 0.0
21/07:00pm 27.6 29.7 19.4 61 5.3 NW 7 11 4 6 1013.8 1013.2 0.0
21/06:30pm 29.3 31.0 15.1 42 8.7 CALM 0 0 0 0 1013.4 1012.8 0.0
21/06:00pm 32.5 32.7 14.1 32 11.3 NE 6 11 3 6 1013.1 1012.5 0.0
21/05:30pm 33.6 33.6 14.1 30 12.0 E 7 13 4 7 1012.9 1012.3 0.0
21/05:00pm 33.3 33.6 14.4 32 11.6 ENE 6 9 3 5 1012.6 1012.1 0.0
21/04:30pm 33.6 33.2 14.1 30 12.0 NE 9 15 5 8 1012.4 1011.9 0.0
21/04:00pm 34.1 33.8 15.5 32 11.7 ENE 11 17 6 9 1012.4 1011.9 0.0
21/03:30pm 35.0 33.7 14.8 29 12.6 E 15 26 8 14 1012.4 1011.9 0.0
21/03:00pm 34.5 34.9 16.4 34 11.5 ENE 9 13 5 7 1012.9 1012.3 0.0
21/02:30pm 33.5 33.6 16.4 36 10.8 NE 11 17 6 9 1013.3 1012.7 0.0
21/02:00pm 33.0 33.9 17.6 40 9.9 ENE 9 20 5 11 1013.7 1013.1 0.0
21/01:30pm 33.8 34.7 18.3 39 10.1 NNE 11 19 6 10 1014.2 1013.6 0.0
21/01:00pm 32.8 33.4 17.8 40 9.7 NE 11 19 6 10 1014.8 1014.2 0.0
21/12:30pm 32.7 33.3 17.7 40 9.7 ENE 11 20 6 11 1015.2 1014.6 0.0
21/12:00pm 31.6 33.3 18.6 46 8.5 NE 7 13 4 7 1015.5 1014.9 0.0
21/11:30am 31.1 32.8 19.4 49 7.7 NE 9 15 5 8 1016.0 1015.4 0.0
21/11:00am 30.4 32.5 19.4 51 7.2 NE 7 11 4 6 1016.3 1015.7 0.0
21/10:30am 30.3 32.7 20.0 54 6.8 ENE 7 13 4 7 1016.6 1016.0 0.0
21/10:00am 29.9 32.5 20.5 57 6.2 ENE 7 13 4 7 1016.7 1016.1 0.0
21/09:30am 28.8 31.2 20.0 59 5.8 NE 7 13 4 7 1016.9 1016.3 0.0
21/09:00am 27.5 30.4 20.6 66 4.6 E 6 6 3 3 1016.8 1016.2 0.0
21/08:30am 26.0 30.3 21.2 75 3.2 CALM 0 0 0 0 1016.7 1016.1 0.0
21/08:00am 24.3 28.6 22.0 87 1.5 E 2 4 1 2 1016.5 1015.9 0.0
21/07:30am 22.4 26.6 21.0 92 0.9 CALM 0 0 0 0 1016.3 1015.7 0.0
21/07:00am 22.4 25.0 21.2 93 0.8 ENE 9 13 5 7 1016.3 1015.7 0.0
21/06:30am 20.6 24.0 19.4 93 0.8 CALM 0 7 0 4 1015.7 1015.1 0.0
21/06:00am 20.5 23.8 19.0 91 0.9 CALM 0 0 0 0 1015.3 1014.7 0.0
21/05:30am 21.1 24.7 19.7 92 0.9 CALM 0 0 0 0 1015.1 1014.5 0.0
21/05:00am 21.4 25.1 20.0 92 0.9 CALM 0 0 0 0 1014.8 1014.2 0.0
21/04:30am 21.6 25.2 19.7 89 1.2 CALM 0 0 0 0 1014.6 1014.0 0.0
21/04:00am 22.1 25.9 20.2 89 1.2 CALM 0 0 0 0 1014.8 1014.2 0.0
21/03:30am 22.7 26.5 20.2 86 1.6 CALM 0 0 0 0 1014.8 1014.2 0.0
21/03:00am 23.5 26.9 21.0 86 1.6 NNE 4 7 2 4 1014.9 1014.3 0.0
21/02:30am 23.1 26.5 21.0 88 1.4 W 4 7 2 4 1015.0 1014.4 0.0
21/02:00am 23.1 27.1 20.6 86 1.6 CALM 0 0 0 0 1015.0 1014.4 0.0
21/01:30am 23.9 27.5 20.6 82 2.2 SW 2 4 1 2 1015.2 1014.6 0.0
21/01:00am 24.3 27.4 21.0 82 2.2 WSW 6 9 3 5 1015.3 1014.7 0.0
21/12:30am 24.6 28.4 21.7 84 1.9 SW 4 7 2 4 1015.5 1014.9 0.0
21/12:00am 24.8 28.7 21.9 84 1.9 SW 4 6 2 3 1015.7 1015.1 0.0
 
Date/Time
CST
Tmp

°C
App
Tmp
°C
Dew
Point
°C
Rel
Hum
%
Delta-T

°C
Wind Press
QNH
hPa
Press
MSL
hPa
Rain
since
9 am
mm
Dir
 
Spd
km/h
Gust
km/h
Spd
kts
Gust
kts
20/11:30pm 24.6 28.8 21.7 84 1.9 W 2 4 1 2 1015.9 1015.3 0.0
20/11:00pm 24.6 28.5 21.1 81 2.3 W 2 2 1 1 1016.0 1015.4 0.0
20/10:30pm 24.7 28.4 21.4 82 2.2 W 4 6 2 3 1015.8 1015.2 0.0
20/10:00pm 24.9 28.9 20.6 77 2.8 CALM 0 2 0 1 1015.7 1015.1 0.0
20/09:30pm 25.7 29.2 21.1 76 3.0 W 4 6 2 3 1015.6 1015.0 0.0
20/09:00pm 26.3 29.8 21.1 73 3.4 WNW 4 7 2 4 1015.4 1014.8 0.0
20/08:30pm 26.4 29.4 21.2 73 3.5 NW 7 9 4 5 1014.9 1014.3 0.0
20/08:00pm 27.2 30.2 21.2 69 4.0 WNW 7 11 4 6 1014.6 1014.0 0.0
20/07:30pm 28.0 30.5 21.1 66 4.6 W 9 13 5 7 1014.0 1013.4 0.0
20/07:00pm 28.8 31.3 21.1 63 5.1 W 9 17 5 9 1013.8 1013.2 0.0
20/06:30pm 30.1 32.3 20.4 56 6.4 WNW 9 19 5 10 1013.4 1012.8 0.0
20/06:00pm 32.3 34.9 18.5 44 9.0 NNE 2 2 1 1 1012.9 1012.3 0.0
20/05:30pm 32.9 35.3 17.9 41 9.7 NE 2 6 1 3 1012.5 1012.0 0.0
20/05:00pm 32.4 34.1 17.1 40 9.8 ENE 4 6 2 3 1012.3 1011.8 0.0

Latest Capital City Observations: Canberra | Sydney | Melbourne | Brisbane | Adelaide | Perth | Hobart | Darwin

Other Formats:

Comma delimited format used in spreadsheet applications
http://www.bom.gov.au/fwo/IDD60901/IDD60901.94125.axf

JavaScript Object Notation format (JSON) in row-major order
http://www.bom.gov.au/fwo/IDD60901/IDD60901.94125.json